sensor_id;sensor_type;location;lat;lon;timestamp;P1;durP1;ratioP1;P2;durP2;ratioP2
5493;SDS011;2769;49.864;8.656;2023-07-02T00:00:30;3.53;;;2.30;;
5493;SDS011;2769;49.864;8.656;2023-07-02T00:03:00;6.53;;;2.50;;
5493;SDS011;2769;49.864;8.656;2023-07-02T00:05:28;2.37;;;2.20;;
5493;SDS011;2769;49.864;8.656;2023-07-02T00:07:56;2.60;;;2.30;;
5493;SDS011;2769;49.864;8.656;2023-07-02T00:10:24;4.10;;;2.60;;
5493;SDS011;2769;49.864;8.656;2023-07-02T00:12:52;2.27;;;2.17;;
5493;SDS011;2769;49.864;8.656;2023-07-02T00:15:20;2.50;;;2.17;;
5493;SDS011;2769;49.864;8.656;2023-07-02T00:17:48;2.90;;;2.00;;
5493;SDS011;2769;49.864;8.656;2023-07-02T00:20:17;3.60;;;2.47;;
5493;SDS011;2769;49.864;8.656;2023-07-02T00:22:46;2.03;;;1.93;;
5493;SDS011;2769;49.864;8.656;2023-07-02T00:25:14;5.53;;;2.20;;
5493;SDS011;2769;49.864;8.656;2023-07-02T00:27:42;2.17;;;2.00;;
5493;SDS011;2769;49.864;8.656;2023-07-02T00:30:10;2.10;;;2.00;;
5493;SDS011;2769;49.864;8.656;2023-07-02T00:32:41;2.80;;;2.20;;
5493;SDS011;2769;49.864;8.656;2023-07-02T00:35:10;3.90;;;2.37;;
5493;SDS011;2769;49.864;8.656;2023-07-02T00:37:40;2.97;;;2.30;;
5493;SDS011;2769;49.864;8.656;2023-07-02T00:40:08;2.10;;;1.73;;
5493;SDS011;2769;49.864;8.656;2023-07-02T00:42:36;2.37;;;2.20;;
5493;SDS011;2769;49.864;8.656;2023-07-02T00:45:05;2.07;;;1.87;;
5493;SDS011;2769;49.864;8.656;2023-07-02T00:47:34;4.43;;;2.50;;
5493;SDS011;2769;49.864;8.656;2023-07-02T00:50:03;2.10;;;2.00;;
5493;SDS011;2769;49.864;8.656;2023-07-02T00:52:32;5.97;;;2.00;;
5493;SDS011;2769;49.864;8.656;2023-07-02T00:55:01;5.70;;;2.30;;
5493;SDS011;2769;49.864;8.656;2023-07-02T00:57:29;4.00;;;1.83;;
5493;SDS011;2769;49.864;8.656;2023-07-02T00:59:58;5.57;;;2.00;;
5493;SDS011;2769;49.864;8.656;2023-07-02T01:02:28;3.63;;;2.37;;
5493;SDS011;2769;49.864;8.656;2023-07-02T01:04:57;5.00;;;2.00;;
5493;SDS011;2769;49.864;8.656;2023-07-02T01:07:27;2.40;;;2.20;;
5493;SDS011;2769;49.864;8.656;2023-07-02T01:09:55;2.50;;;2.30;;
5493;SDS011;2769;49.864;8.656;2023-07-02T01:12:24;2.57;;;2.37;;
5493;SDS011;2769;49.864;8.656;2023-07-02T01:14:53;2.20;;;2.10;;
5493;SDS011;2769;49.864;8.656;2023-07-02T01:17:23;4.00;;;2.00;;
5493;SDS011;2769;49.864;8.656;2023-07-02T01:19:53;3.97;;;2.37;;
5493;SDS011;2769;49.864;8.656;2023-07-02T01:22:25;2.53;;;2.30;;
5493;SDS011;2769;49.864;8.656;2023-07-02T01:24:55;6.00;;;2.40;;
5493;SDS011;2769;49.864;8.656;2023-07-02T01:27:23;3.67;;;1.97;;
5493;SDS011;2769;49.864;8.656;2023-07-02T01:29:51;3.10;;;2.30;;
5493;SDS011;2769;49.864;8.656;2023-07-02T01:32:19;6.23;;;2.30;;
5493;SDS011;2769;49.864;8.656;2023-07-02T01:34:49;2.40;;;2.20;;
5493;SDS011;2769;49.864;8.656;2023-07-02T01:37:21;3.00;;;2.27;;
5493;SDS011;2769;49.864;8.656;2023-07-02T01:39:49;2.27;;;2.13;;
5493;SDS011;2769;49.864;8.656;2023-07-02T01:42:18;2.43;;;2.30;;
5493;SDS011;2769;49.864;8.656;2023-07-02T01:44:47;2.80;;;2.50;;
5493;SDS011;2769;49.864;8.656;2023-07-02T01:47:17;4.30;;;2.70;;
5493;SDS011;2769;49.864;8.656;2023-07-02T01:49:46;2.40;;;2.30;;
5493;SDS011;2769;49.864;8.656;2023-07-02T01:52:14;2.73;;;2.50;;
5493;SDS011;2769;49.864;8.656;2023-07-02T01:54:45;4.50;;;2.53;;
5493;SDS011;2769;49.864;8.656;2023-07-02T01:57:13;2.60;;;2.30;;
5493;SDS011;2769;49.864;8.656;2023-07-02T01:59:41;2.90;;;2.67;;
5493;SDS011;2769;49.864;8.656;2023-07-02T02:02:09;5.57;;;2.40;;
5493;SDS011;2769;49.864;8.656;2023-07-02T02:04:37;2.73;;;2.53;;
5493;SDS011;2769;49.864;8.656;2023-07-02T02:07:05;3.60;;;2.60;;
5493;SDS011;2769;49.864;8.656;2023-07-02T02:09:33;6.53;;;2.33;;
5493;SDS011;2769;49.864;8.656;2023-07-02T02:12:02;3.80;;;2.50;;
5493;SDS011;2769;49.864;8.656;2023-07-02T02:14:30;2.80;;;2.60;;
5493;SDS011;2769;49.864;8.656;2023-07-02T02:16:59;3.57;;;2.57;;
5493;SDS011;2769;49.864;8.656;2023-07-02T02:19:27;3.63;;;2.40;;
5493;SDS011;2769;49.864;8.656;2023-07-02T02:21:55;2.67;;;2.43;;
5493;SDS011;2769;49.864;8.656;2023-07-02T02:24:23;2.93;;;2.63;;
5493;SDS011;2769;49.864;8.656;2023-07-02T02:26:52;4.90;;;2.73;;
5493;SDS011;2769;49.864;8.656;2023-07-02T02:29:21;3.80;;;2.97;;
5493;SDS011;2769;49.864;8.656;2023-07-02T02:31:50;4.00;;;3.10;;
5493;SDS011;2769;49.864;8.656;2023-07-02T02:34:19;6.70;;;3.03;;
5493;SDS011;2769;49.864;8.656;2023-07-02T02:36:47;4.13;;;3.00;;
5493;SDS011;2769;49.864;8.656;2023-07-02T02:39:15;7.83;;;4.00;;
5493;SDS011;2769;49.864;8.656;2023-07-02T02:41:43;6.80;;;3.80;;
5493;SDS011;2769;49.864;8.656;2023-07-02T02:44:14;7.23;;;3.90;;
5493;SDS011;2769;49.864;8.656;2023-07-02T02:46:44;6.60;;;4.00;;
5493;SDS011;2769;49.864;8.656;2023-07-02T02:49:12;9.27;;;3.73;;
5493;SDS011;2769;49.864;8.656;2023-07-02T02:51:40;5.27;;;4.00;;
5493;SDS011;2769;49.864;8.656;2023-07-02T02:54:08;6.73;;;4.10;;
5493;SDS011;2769;49.864;8.656;2023-07-02T02:56:36;6.40;;;3.90;;
5493;SDS011;2769;49.864;8.656;2023-07-02T02:59:03;5.30;;;3.80;;
5493;SDS011;2769;49.864;8.656;2023-07-02T03:01:31;7.70;;;4.60;;
5493;SDS011;2769;49.864;8.656;2023-07-02T03:04:01;7.30;;;3.70;;
5493;SDS011;2769;49.864;8.656;2023-07-02T03:06:28;11.10;;;4.43;;
5493;SDS011;2769;49.864;8.656;2023-07-02T03:08:56;5.20;;;3.80;;
5493;SDS011;2769;49.864;8.656;2023-07-02T03:11:25;5.60;;;3.77;;
5493;SDS011;2769;49.864;8.656;2023-07-02T03:13:53;7.67;;;3.63;;
5493;SDS011;2769;49.864;8.656;2023-07-02T03:16:21;4.40;;;3.70;;
5493;SDS011;2769;49.864;8.656;2023-07-02T03:18:49;6.93;;;3.80;;
5493;SDS011;2769;49.864;8.656;2023-07-02T03:21:18;6.33;;;4.33;;
5493;SDS011;2769;49.864;8.656;2023-07-02T03:23:46;4.67;;;3.50;;
5493;SDS011;2769;49.864;8.656;2023-07-02T03:26:14;5.67;;;3.70;;
5493;SDS011;2769;49.864;8.656;2023-07-02T03:28:42;8.93;;;4.00;;
5493;SDS011;2769;49.864;8.656;2023-07-02T03:31:10;6.20;;;4.00;;
5493;SDS011;2769;49.864;8.656;2023-07-02T03:33:38;9.73;;;4.30;;
5493;SDS011;2769;49.864;8.656;2023-07-02T03:36:06;6.27;;;4.43;;
5493;SDS011;2769;49.864;8.656;2023-07-02T03:38:35;5.57;;;3.97;;
5493;SDS011;2769;49.864;8.656;2023-07-02T03:41:03;13.63;;;4.60;;
5493;SDS011;2769;49.864;8.656;2023-07-02T03:43:31;5.70;;;4.37;;
5493;SDS011;2769;49.864;8.656;2023-07-02T03:45:59;9.83;;;6.13;;
5493;SDS011;2769;49.864;8.656;2023-07-02T03:48:27;6.23;;;4.17;;
5493;SDS011;2769;49.864;8.656;2023-07-02T03:50:55;6.67;;;5.00;;
5493;SDS011;2769;49.864;8.656;2023-07-02T03:53:23;11.87;;;5.60;;
5493;SDS011;2769;49.864;8.656;2023-07-02T03:55:52;5.53;;;3.90;;
5493;SDS011;2769;49.864;8.656;2023-07-02T03:58:20;9.47;;;5.10;;
5493;SDS011;2769;49.864;8.656;2023-07-02T04:00:48;21.07;;;6.23;;
5493;SDS011;2769;49.864;8.656;2023-07-02T04:03:17;6.33;;;4.50;;
5493;SDS011;2769;49.864;8.656;2023-07-02T04:05:45;8.00;;;4.90;;
5493;SDS011;2769;49.864;8.656;2023-07-02T04:08:14;7.60;;;4.47;;
5493;SDS011;2769;49.864;8.656;2023-07-02T04:10:42;6.60;;;4.40;;
5493;SDS011;2769;49.864;8.656;2023-07-02T04:13:11;5.87;;;4.40;;
5493;SDS011;2769;49.864;8.656;2023-07-02T04:15:39;7.20;;;4.13;;
5493;SDS011;2769;49.864;8.656;2023-07-02T04:18:07;9.93;;;4.83;;
5493;SDS011;2769;49.864;8.656;2023-07-02T04:20:35;7.67;;;4.77;;
5493;SDS011;2769;49.864;8.656;2023-07-02T04:23:05;10.10;;;5.00;;
5493;SDS011;2769;49.864;8.656;2023-07-02T04:25:33;6.67;;;4.40;;
5493;SDS011;2769;49.864;8.656;2023-07-02T04:28:18;5.83;;;4.50;;
5493;SDS011;2769;49.864;8.656;2023-07-02T04:30:46;6.73;;;4.03;;
5493;SDS011;2769;49.864;8.656;2023-07-02T04:33:16;6.03;;;4.20;;
5493;SDS011;2769;49.864;8.656;2023-07-02T04:35:44;6.97;;;4.57;;
5493;SDS011;2769;49.864;8.656;2023-07-02T04:38:12;6.20;;;4.47;;
5493;SDS011;2769;49.864;8.656;2023-07-02T04:40:40;8.07;;;5.67;;
5493;SDS011;2769;49.864;8.656;2023-07-02T04:43:11;7.17;;;5.43;;
5493;SDS011;2769;49.864;8.656;2023-07-02T04:45:41;8.83;;;4.80;;
5493;SDS011;2769;49.864;8.656;2023-07-02T04:48:11;9.90;;;4.87;;
5493;SDS011;2769;49.864;8.656;2023-07-02T04:50:41;10.27;;;5.20;;
5493;SDS011;2769;49.864;8.656;2023-07-02T04:53:09;6.30;;;4.50;;
5493;SDS011;2769;49.864;8.656;2023-07-02T04:55:37;8.97;;;5.13;;
5493;SDS011;2769;49.864;8.656;2023-07-02T04:58:06;9.60;;;5.10;;
5493;SDS011;2769;49.864;8.656;2023-07-02T05:00:34;8.73;;;4.60;;
5493;SDS011;2769;49.864;8.656;2023-07-02T05:03:03;10.90;;;5.53;;
5493;SDS011;2769;49.864;8.656;2023-07-02T05:05:31;11.33;;;5.80;;
5493;SDS011;2769;49.864;8.656;2023-07-02T05:07:59;7.30;;;4.60;;
5493;SDS011;2769;49.864;8.656;2023-07-02T05:10:27;7.90;;;4.87;;
5493;SDS011;2769;49.864;8.656;2023-07-02T05:12:55;8.23;;;5.63;;
5493;SDS011;2769;49.864;8.656;2023-07-02T05:15:23;10.53;;;5.20;;
5493;SDS011;2769;49.864;8.656;2023-07-02T05:17:51;14.70;;;5.67;;
5493;SDS011;2769;49.864;8.656;2023-07-02T05:20:20;7.30;;;4.80;;
5493;SDS011;2769;49.864;8.656;2023-07-02T05:22:48;8.40;;;5.33;;
5493;SDS011;2769;49.864;8.656;2023-07-02T05:25:16;12.27;;;5.97;;
5493;SDS011;2769;49.864;8.656;2023-07-02T05:27:44;10.87;;;6.00;;
5493;SDS011;2769;49.864;8.656;2023-07-02T05:30:14;9.10;;;6.03;;
5493;SDS011;2769;49.864;8.656;2023-07-02T05:32:42;13.30;;;5.57;;
5493;SDS011;2769;49.864;8.656;2023-07-02T05:35:10;9.23;;;5.83;;
5493;SDS011;2769;49.864;8.656;2023-07-02T05:37:40;10.57;;;6.30;;
5493;SDS011;2769;49.864;8.656;2023-07-02T05:40:08;9.53;;;5.80;;
5493;SDS011;2769;49.864;8.656;2023-07-02T05:42:39;10.33;;;6.03;;
5493;SDS011;2769;49.864;8.656;2023-07-02T05:45:10;12.43;;;6.30;;
5493;SDS011;2769;49.864;8.656;2023-07-02T05:47:37;9.80;;;6.03;;
5493;SDS011;2769;49.864;8.656;2023-07-02T05:50:07;10.00;;;5.77;;
5493;SDS011;2769;49.864;8.656;2023-07-02T05:52:35;9.10;;;5.60;;
5493;SDS011;2769;49.864;8.656;2023-07-02T05:55:05;11.33;;;5.63;;
5493;SDS011;2769;49.864;8.656;2023-07-02T05:57:36;11.20;;;6.40;;
5493;SDS011;2769;49.864;8.656;2023-07-02T06:00:06;11.47;;;6.40;;
5493;SDS011;2769;49.864;8.656;2023-07-02T06:02:38;8.77;;;5.27;;
5493;SDS011;2769;49.864;8.656;2023-07-02T06:05:06;13.60;;;6.63;;
5493;SDS011;2769;49.864;8.656;2023-07-02T06:07:38;10.53;;;6.53;;
5493;SDS011;2769;49.864;8.656;2023-07-02T06:10:07;21.07;;;7.07;;
5493;SDS011;2769;49.864;8.656;2023-07-02T06:12:36;11.80;;;6.83;;
5493;SDS011;2769;49.864;8.656;2023-07-02T06:15:04;9.87;;;6.13;;
5493;SDS011;2769;49.864;8.656;2023-07-02T06:17:32;11.60;;;6.47;;
5493;SDS011;2769;49.864;8.656;2023-07-02T06:20:02;13.80;;;6.13;;
5493;SDS011;2769;49.864;8.656;2023-07-02T06:22:32;10.37;;;6.53;;
5493;SDS011;2769;49.864;8.656;2023-07-02T06:25:00;10.77;;;7.10;;
5493;SDS011;2769;49.864;8.656;2023-07-02T06:27:32;9.40;;;6.50;;
5493;SDS011;2769;49.864;8.656;2023-07-02T06:30:00;10.70;;;6.87;;
5493;SDS011;2769;49.864;8.656;2023-07-02T06:32:28;13.40;;;7.50;;
5493;SDS011;2769;49.864;8.656;2023-07-02T06:34:57;11.80;;;7.40;;
5493;SDS011;2769;49.864;8.656;2023-07-02T06:37:25;12.90;;;7.37;;
5493;SDS011;2769;49.864;8.656;2023-07-02T06:39:53;18.27;;;7.80;;
5493;SDS011;2769;49.864;8.656;2023-07-02T06:42:22;13.13;;;7.60;;
5493;SDS011;2769;49.864;8.656;2023-07-02T06:44:51;13.57;;;8.00;;
5493;SDS011;2769;49.864;8.656;2023-07-02T06:47:19;15.70;;;9.00;;
5493;SDS011;2769;49.864;8.656;2023-07-02T06:49:48;15.00;;;9.13;;
5493;SDS011;2769;49.864;8.656;2023-07-02T06:52:15;15.70;;;7.90;;
5493;SDS011;2769;49.864;8.656;2023-07-02T06:54:43;13.60;;;7.60;;
5493;SDS011;2769;49.864;8.656;2023-07-02T06:57:12;13.17;;;7.60;;
5493;SDS011;2769;49.864;8.656;2023-07-02T06:59:40;15.83;;;8.50;;
5493;SDS011;2769;49.864;8.656;2023-07-02T07:02:09;12.73;;;7.83;;
5493;SDS011;2769;49.864;8.656;2023-07-02T07:04:37;14.80;;;8.20;;
5493;SDS011;2769;49.864;8.656;2023-07-02T07:07:05;13.67;;;8.00;;
5493;SDS011;2769;49.864;8.656;2023-07-02T07:09:33;13.73;;;8.33;;
5493;SDS011;2769;49.864;8.656;2023-07-02T07:12:01;16.07;;;8.27;;
5493;SDS011;2769;49.864;8.656;2023-07-02T07:14:29;17.00;;;8.77;;
5493;SDS011;2769;49.864;8.656;2023-07-02T07:16:57;12.67;;;8.13;;
5493;SDS011;2769;49.864;8.656;2023-07-02T07:19:26;14.47;;;7.83;;
5493;SDS011;2769;49.864;8.656;2023-07-02T07:21:54;14.30;;;8.30;;
5493;SDS011;2769;49.864;8.656;2023-07-02T07:24:22;13.70;;;8.00;;
5493;SDS011;2769;49.864;8.656;2023-07-02T07:26:50;18.27;;;8.40;;
5493;SDS011;2769;49.864;8.656;2023-07-02T07:29:18;12.93;;;8.57;;
5493;SDS011;2769;49.864;8.656;2023-07-02T07:31:46;12.33;;;8.20;;
5493;SDS011;2769;49.864;8.656;2023-07-02T07:34:14;16.07;;;9.10;;
5493;SDS011;2769;49.864;8.656;2023-07-02T07:36:43;12.13;;;8.00;;
5493;SDS011;2769;49.864;8.656;2023-07-02T07:39:11;15.47;;;9.33;;
5493;SDS011;2769;49.864;8.656;2023-07-02T07:41:39;16.10;;;8.23;;
5493;SDS011;2769;49.864;8.656;2023-07-02T07:44:07;13.63;;;8.97;;
5493;SDS011;2769;49.864;8.656;2023-07-02T07:46:37;16.90;;;9.43;;
5493;SDS011;2769;49.864;8.656;2023-07-02T07:49:05;14.60;;;8.97;;
5493;SDS011;2769;49.864;8.656;2023-07-02T07:51:34;14.97;;;8.30;;
5493;SDS011;2769;49.864;8.656;2023-07-02T07:54:03;14.50;;;8.80;;
5493;SDS011;2769;49.864;8.656;2023-07-02T07:56:31;15.73;;;9.93;;
5493;SDS011;2769;49.864;8.656;2023-07-02T07:58:59;19.50;;;9.87;;
5493;SDS011;2769;49.864;8.656;2023-07-02T08:01:27;15.30;;;9.07;;
5493;SDS011;2769;49.864;8.656;2023-07-02T08:03:55;13.50;;;9.07;;
5493;SDS011;2769;49.864;8.656;2023-07-02T08:06:23;15.97;;;9.20;;
5493;SDS011;2769;49.864;8.656;2023-07-02T08:08:51;15.00;;;8.97;;
5493;SDS011;2769;49.864;8.656;2023-07-02T08:11:21;14.97;;;9.03;;
5493;SDS011;2769;49.864;8.656;2023-07-02T08:13:48;15.03;;;9.30;;
5493;SDS011;2769;49.864;8.656;2023-07-02T08:16:20;15.63;;;9.00;;
5493;SDS011;2769;49.864;8.656;2023-07-02T08:18:48;16.23;;;9.67;;
5493;SDS011;2769;49.864;8.656;2023-07-02T08:21:16;17.77;;;9.90;;
5493;SDS011;2769;49.864;8.656;2023-07-02T08:23:44;17.30;;;9.20;;
5493;SDS011;2769;49.864;8.656;2023-07-02T08:26:12;17.40;;;9.90;;
5493;SDS011;2769;49.864;8.656;2023-07-02T08:28:42;16.97;;;8.90;;
5493;SDS011;2769;49.864;8.656;2023-07-02T08:31:10;11.40;;;8.60;;
5493;SDS011;2769;49.864;8.656;2023-07-02T08:33:38;17.10;;;9.30;;
5493;SDS011;2769;49.864;8.656;2023-07-02T08:36:06;13.73;;;9.17;;
5493;SDS011;2769;49.864;8.656;2023-07-02T08:38:34;17.40;;;9.77;;
5493;SDS011;2769;49.864;8.656;2023-07-02T08:41:02;19.20;;;9.00;;
5493;SDS011;2769;49.864;8.656;2023-07-02T08:43:30;11.50;;;8.20;;
5493;SDS011;2769;49.864;8.656;2023-07-02T08:45:59;14.10;;;8.43;;
5493;SDS011;2769;49.864;8.656;2023-07-02T08:48:28;13.63;;;7.80;;
5493;SDS011;2769;49.864;8.656;2023-07-02T08:50:58;9.77;;;6.87;;
5493;SDS011;2769;49.864;8.656;2023-07-02T08:53:26;10.30;;;7.87;;
5493;SDS011;2769;49.864;8.656;2023-07-02T08:56:00;10.83;;;7.00;;
5493;SDS011;2769;49.864;8.656;2023-07-02T08:58:28;15.47;;;8.47;;
5493;SDS011;2769;49.864;8.656;2023-07-02T09:01:08;12.40;;;8.17;;
5493;SDS011;2769;49.864;8.656;2023-07-02T09:03:37;11.80;;;7.90;;
5493;SDS011;2769;49.864;8.656;2023-07-02T09:06:08;11.27;;;7.60;;
5493;SDS011;2769;49.864;8.656;2023-07-02T09:08:38;16.00;;;8.30;;
5493;SDS011;2769;49.864;8.656;2023-07-02T09:11:07;13.63;;;7.67;;
5493;SDS011;2769;49.864;8.656;2023-07-02T09:13:45;13.80;;;7.57;;
5493;SDS011;2769;49.864;8.656;2023-07-02T09:16:24;9.93;;;7.30;;
5493;SDS011;2769;49.864;8.656;2023-07-02T09:18:56;9.77;;;6.23;;
5493;SDS011;2769;49.864;8.656;2023-07-02T09:21:37;11.30;;;7.10;;
5493;SDS011;2769;49.864;8.656;2023-07-02T09:24:13;12.20;;;7.80;;
5493;SDS011;2769;49.864;8.656;2023-07-02T09:26:42;12.63;;;7.87;;
5493;SDS011;2769;49.864;8.656;2023-07-02T09:29:14;11.10;;;7.33;;
5493;SDS011;2769;49.864;8.656;2023-07-02T09:31:47;12.17;;;7.90;;
5493;SDS011;2769;49.864;8.656;2023-07-02T09:34:35;11.43;;;7.30;;
5493;SDS011;2769;49.864;8.656;2023-07-02T09:37:06;10.07;;;6.73;;
5493;SDS011;2769;49.864;8.656;2023-07-02T09:39:35;11.30;;;7.63;;
5493;SDS011;2769;49.864;8.656;2023-07-02T09:42:05;12.30;;;8.17;;
5493;SDS011;2769;49.864;8.656;2023-07-02T09:44:34;11.77;;;7.53;;
5493;SDS011;2769;49.864;8.656;2023-07-02T09:47:07;17.43;;;8.47;;
5493;SDS011;2769;49.864;8.656;2023-07-02T09:49:36;11.90;;;8.67;;
5493;SDS011;2769;49.864;8.656;2023-07-02T09:52:05;11.73;;;8.10;;
5493;SDS011;2769;49.864;8.656;2023-07-02T09:54:35;11.87;;;8.40;;
5493;SDS011;2769;49.864;8.656;2023-07-02T09:57:03;17.80;;;8.37;;
5493;SDS011;2769;49.864;8.656;2023-07-02T09:59:32;12.97;;;8.60;;
5493;SDS011;2769;49.864;8.656;2023-07-02T10:02:01;11.83;;;8.10;;
5493;SDS011;2769;49.864;8.656;2023-07-02T10:04:40;16.50;;;9.10;;
5493;SDS011;2769;49.864;8.656;2023-07-02T10:07:09;22.47;;;9.43;;
5493;SDS011;2769;49.864;8.656;2023-07-02T10:09:37;14.53;;;8.80;;
5493;SDS011;2769;49.864;8.656;2023-07-02T10:12:16;14.30;;;8.07;;
5493;SDS011;2769;49.864;8.656;2023-07-02T10:14:45;11.13;;;8.37;;
5493;SDS011;2769;49.864;8.656;2023-07-02T10:17:22;21.00;;;8.70;;
5493;SDS011;2769;49.864;8.656;2023-07-02T10:19:53;17.90;;;9.70;;
5493;SDS011;2769;49.864;8.656;2023-07-02T10:22:23;20.00;;;10.67;;
5493;SDS011;2769;49.864;8.656;2023-07-02T10:24:54;13.77;;;9.43;;
5493;SDS011;2769;49.864;8.656;2023-07-02T10:27:33;15.53;;;10.30;;
5493;SDS011;2769;49.864;8.656;2023-07-02T10:30:02;14.20;;;10.03;;
5493;SDS011;2769;49.864;8.656;2023-07-02T10:32:32;17.13;;;9.30;;
5493;SDS011;2769;49.864;8.656;2023-07-02T10:35:04;18.03;;;9.93;;
5493;SDS011;2769;49.864;8.656;2023-07-02T10:37:40;15.23;;;9.37;;
5493;SDS011;2769;49.864;8.656;2023-07-02T10:40:09;14.67;;;10.50;;
5493;SDS011;2769;49.864;8.656;2023-07-02T10:42:47;17.90;;;9.63;;
5493;SDS011;2769;49.864;8.656;2023-07-02T10:45:15;14.23;;;9.83;;
5493;SDS011;2769;49.864;8.656;2023-07-02T10:47:43;16.20;;;10.10;;
5493;SDS011;2769;49.864;8.656;2023-07-02T10:50:17;16.50;;;10.23;;
5493;SDS011;2769;49.864;8.656;2023-07-02T10:52:46;14.50;;;10.17;;
5493;SDS011;2769;49.864;8.656;2023-07-02T10:55:17;16.17;;;10.17;;
5493;SDS011;2769;49.864;8.656;2023-07-02T10:57:46;13.70;;;9.90;;
5493;SDS011;2769;49.864;8.656;2023-07-02T11:00:15;17.17;;;9.87;;
5493;SDS011;2769;49.864;8.656;2023-07-02T11:02:43;14.40;;;9.67;;
5493;SDS011;2769;49.864;8.656;2023-07-02T11:05:11;15.40;;;10.40;;
5493;SDS011;2769;49.864;8.656;2023-07-02T11:07:41;14.93;;;10.60;;
5493;SDS011;2769;49.864;8.656;2023-07-02T11:10:10;17.47;;;11.03;;
5493;SDS011;2769;49.864;8.656;2023-07-02T11:12:45;16.30;;;10.40;;
5493;SDS011;2769;49.864;8.656;2023-07-02T11:15:13;14.37;;;10.53;;
5493;SDS011;2769;49.864;8.656;2023-07-02T11:17:44;16.03;;;10.70;;
5493;SDS011;2769;49.864;8.656;2023-07-02T11:20:12;15.07;;;10.00;;
5493;SDS011;2769;49.864;8.656;2023-07-02T11:22:42;15.50;;;10.00;;
5493;SDS011;2769;49.864;8.656;2023-07-02T11:25:11;16.37;;;9.90;;
5493;SDS011;2769;49.864;8.656;2023-07-02T11:27:40;16.00;;;10.63;;
5493;SDS011;2769;49.864;8.656;2023-07-02T11:30:08;15.77;;;10.80;;
5493;SDS011;2769;49.864;8.656;2023-07-02T11:32:49;17.00;;;9.80;;
5493;SDS011;2769;49.864;8.656;2023-07-02T11:35:18;16.43;;;10.40;;
5493;SDS011;2769;49.864;8.656;2023-07-02T11:37:48;18.10;;;10.90;;
5493;SDS011;2769;49.864;8.656;2023-07-02T11:40:17;15.20;;;10.40;;
5493;SDS011;2769;49.864;8.656;2023-07-02T11:42:45;15.10;;;9.73;;
5493;SDS011;2769;49.864;8.656;2023-07-02T11:45:14;15.27;;;9.87;;
5493;SDS011;2769;49.864;8.656;2023-07-02T11:47:42;15.70;;;10.00;;
5493;SDS011;2769;49.864;8.656;2023-07-02T11:50:10;20.93;;;11.23;;
5493;SDS011;2769;49.864;8.656;2023-07-02T11:52:53;19.57;;;11.27;;
5493;SDS011;2769;49.864;8.656;2023-07-02T11:55:21;21.20;;;11.90;;
5493;SDS011;2769;49.864;8.656;2023-07-02T11:57:49;15.30;;;9.87;;
5493;SDS011;2769;49.864;8.656;2023-07-02T12:00:18;17.90;;;10.87;;
5493;SDS011;2769;49.864;8.656;2023-07-02T12:02:46;18.93;;;10.93;;
5493;SDS011;2769;49.864;8.656;2023-07-02T12:05:14;15.30;;;9.77;;
5493;SDS011;2769;49.864;8.656;2023-07-02T12:07:42;18.70;;;9.87;;
5493;SDS011;2769;49.864;8.656;2023-07-02T12:10:11;17.53;;;11.30;;
5493;SDS011;2769;49.864;8.656;2023-07-02T12:12:40;21.40;;;10.77;;
5493;SDS011;2769;49.864;8.656;2023-07-02T12:15:08;17.83;;;10.60;;
5493;SDS011;2769;49.864;8.656;2023-07-02T12:17:36;21.30;;;11.20;;
5493;SDS011;2769;49.864;8.656;2023-07-02T12:20:05;18.47;;;10.57;;
5493;SDS011;2769;49.864;8.656;2023-07-02T12:22:33;16.27;;;10.30;;
5493;SDS011;2769;49.864;8.656;2023-07-02T12:25:01;18.67;;;10.87;;
5493;SDS011;2769;49.864;8.656;2023-07-02T12:27:30;18.03;;;11.90;;
5493;SDS011;2769;49.864;8.656;2023-07-02T12:29:58;17.13;;;10.83;;
5493;SDS011;2769;49.864;8.656;2023-07-02T12:32:27;22.43;;;11.33;;
5493;SDS011;2769;49.864;8.656;2023-07-02T12:34:56;22.10;;;12.13;;
5493;SDS011;2769;49.864;8.656;2023-07-02T12:37:24;16.23;;;11.23;;
5493;SDS011;2769;49.864;8.656;2023-07-02T12:39:52;23.13;;;11.43;;
5493;SDS011;2769;49.864;8.656;2023-07-02T12:42:20;22.17;;;12.30;;
5493;SDS011;2769;49.864;8.656;2023-07-02T12:44:49;19.90;;;11.83;;
5493;SDS011;2769;49.864;8.656;2023-07-02T12:47:17;20.40;;;10.90;;
5493;SDS011;2769;49.864;8.656;2023-07-02T12:49:45;24.47;;;13.40;;
5493;SDS011;2769;49.864;8.656;2023-07-02T12:52:13;19.23;;;13.03;;
5493;SDS011;2769;49.864;8.656;2023-07-02T12:54:41;20.53;;;13.00;;
5493;SDS011;2769;49.864;8.656;2023-07-02T12:57:09;18.93;;;12.57;;
5493;SDS011;2769;49.864;8.656;2023-07-02T12:59:37;19.50;;;12.43;;
5493;SDS011;2769;49.864;8.656;2023-07-02T13:02:09;26.53;;;13.00;;
5493;SDS011;2769;49.864;8.656;2023-07-02T13:04:37;19.73;;;12.77;;
5493;SDS011;2769;49.864;8.656;2023-07-02T13:07:06;17.70;;;11.50;;
5493;SDS011;2769;49.864;8.656;2023-07-02T13:09:34;17.47;;;12.27;;
5493;SDS011;2769;49.864;8.656;2023-07-02T13:12:02;23.53;;;11.93;;
5493;SDS011;2769;49.864;8.656;2023-07-02T13:14:30;15.73;;;11.13;;
5493;SDS011;2769;49.864;8.656;2023-07-02T13:16:59;21.87;;;13.00;;
5493;SDS011;2769;49.864;8.656;2023-07-02T13:19:28;22.47;;;12.87;;
5493;SDS011;2769;49.864;8.656;2023-07-02T13:21:56;18.07;;;11.57;;
5493;SDS011;2769;49.864;8.656;2023-07-02T13:24:24;24.10;;;12.10;;
5493;SDS011;2769;49.864;8.656;2023-07-02T13:26:55;19.60;;;11.33;;
5493;SDS011;2769;49.864;8.656;2023-07-02T13:29:23;17.97;;;11.30;;
5493;SDS011;2769;49.864;8.656;2023-07-02T13:31:51;17.63;;;11.23;;
5493;SDS011;2769;49.864;8.656;2023-07-02T13:34:19;22.33;;;11.80;;
5493;SDS011;2769;49.864;8.656;2023-07-02T13:36:48;19.27;;;12.30;;
5493;SDS011;2769;49.864;8.656;2023-07-02T13:39:16;19.70;;;11.93;;
5493;SDS011;2769;49.864;8.656;2023-07-02T13:41:44;22.03;;;11.47;;
5493;SDS011;2769;49.864;8.656;2023-07-02T13:44:13;20.20;;;11.87;;
5493;SDS011;2769;49.864;8.656;2023-07-02T13:46:42;24.13;;;11.37;;
5493;SDS011;2769;49.864;8.656;2023-07-02T13:49:10;15.60;;;10.50;;
5493;SDS011;2769;49.864;8.656;2023-07-02T13:51:38;16.20;;;10.73;;
5493;SDS011;2769;49.864;8.656;2023-07-02T13:54:09;19.90;;;12.10;;
5493;SDS011;2769;49.864;8.656;2023-07-02T13:56:40;17.60;;;11.30;;
5493;SDS011;2769;49.864;8.656;2023-07-02T13:59:10;18.30;;;11.47;;
5493;SDS011;2769;49.864;8.656;2023-07-02T14:01:38;21.70;;;11.87;;
5493;SDS011;2769;49.864;8.656;2023-07-02T14:04:06;20.90;;;11.50;;
5493;SDS011;2769;49.864;8.656;2023-07-02T14:06:34;17.03;;;11.27;;
5493;SDS011;2769;49.864;8.656;2023-07-02T14:09:02;21.53;;;10.77;;
5493;SDS011;2769;49.864;8.656;2023-07-02T14:11:31;16.30;;;10.30;;
5493;SDS011;2769;49.864;8.656;2023-07-02T14:14:00;21.60;;;11.13;;
5493;SDS011;2769;49.864;8.656;2023-07-02T14:16:29;19.00;;;11.60;;
5493;SDS011;2769;49.864;8.656;2023-07-02T14:18:58;17.90;;;11.50;;
5493;SDS011;2769;49.864;8.656;2023-07-02T14:21:26;20.20;;;11.10;;
5493;SDS011;2769;49.864;8.656;2023-07-02T14:23:54;19.13;;;11.83;;
5493;SDS011;2769;49.864;8.656;2023-07-02T14:26:22;18.60;;;11.60;;
5493;SDS011;2769;49.864;8.656;2023-07-02T14:28:50;19.10;;;11.80;;
5493;SDS011;2769;49.864;8.656;2023-07-02T14:31:17;23.70;;;11.43;;
5493;SDS011;2769;49.864;8.656;2023-07-02T14:33:47;20.03;;;12.27;;
5493;SDS011;2769;49.864;8.656;2023-07-02T14:36:15;20.13;;;11.10;;
5493;SDS011;2769;49.864;8.656;2023-07-02T14:38:47;18.87;;;11.77;;
5493;SDS011;2769;49.864;8.656;2023-07-02T14:41:15;20.40;;;11.73;;
5493;SDS011;2769;49.864;8.656;2023-07-02T14:43:43;24.40;;;12.20;;
5493;SDS011;2769;49.864;8.656;2023-07-02T14:46:11;20.57;;;12.53;;
5493;SDS011;2769;49.864;8.656;2023-07-02T14:48:39;16.50;;;11.63;;
5493;SDS011;2769;49.864;8.656;2023-07-02T14:51:09;18.63;;;10.50;;
5493;SDS011;2769;49.864;8.656;2023-07-02T14:53:37;21.00;;;12.70;;
5493;SDS011;2769;49.864;8.656;2023-07-02T14:56:05;21.80;;;12.03;;
5493;SDS011;2769;49.864;8.656;2023-07-02T14:58:33;19.30;;;11.33;;
5493;SDS011;2769;49.864;8.656;2023-07-02T15:01:01;22.47;;;11.50;;
5493;SDS011;2769;49.864;8.656;2023-07-02T15:03:29;18.00;;;11.80;;
5493;SDS011;2769;49.864;8.656;2023-07-02T15:06:07;20.90;;;11.67;;
5493;SDS011;2769;49.864;8.656;2023-07-02T15:08:38;20.00;;;11.40;;
5493;SDS011;2769;49.864;8.656;2023-07-02T15:11:07;19.40;;;11.17;;
5493;SDS011;2769;49.864;8.656;2023-07-02T15:13:36;19.67;;;11.80;;